Time;durP1;ratioP1;P1;durP2;ratioP2;P2;SDS_P1;SDS_P2;PMS_P1;PMS_P2;Temp;Humidity;BMP_temperature;BMP_pressure;BME280_temperature;BME280_humidity;BME280_pressure;Samples;Min_cycle;Max_cycle;Signal;HPM_P1;HPM_P2
2021/09/13 00:00:24;;;;;;;;;;;;;;;15.47;77.65;97081.59;30001;982;1862;-68
2021/09/13 00:00:55;;;;;;;;;;;;;;;15.47;77.67;97086.25;30001;982;1880;-62
2021/09/13 00:01:25;;;;;;;;;;;;;;;15.47;77.82;97086.25;30001;983;1879;-66
2021/09/13 00:01:56;;;;;;;;;;;;;;;15.47;77.66;97086.25;30001;983;1884;-67
2021/09/13 00:02:29;;;;;;;;;;;;;;;15.48;77.89;97087.84;30001;983;1879;-63
2021/09/13 00:03:00;;;;;;;;;;;;;;;15.47;77.96;97086.25;30001;983;1866;-68
2021/09/13 00:03:31;;;;;;;;;;;;;;;15.49;77.59;97089.47;30001;983;1875;-63
2021/09/13 00:04:02;;;;;;;;;;;;;;;15.49;77.72;97084.00;30001;983;1884;-68
2021/09/13 00:04:33;;;;;;;;;;;;;;;15.48;77.50;97085.94;30001;983;1880;-67
2021/09/13 00:05:05;;;;;;;;;;;;;;;15.48;77.43;97087.84;30001;983;1884;-68
2021/09/13 00:05:36;;;;;;;;;;;;;;;15.48;77.45;97085.12;30001;982;1880;-61
2021/09/13 00:06:06;;;;;;;;;;;;;;;15.48;77.45;97085.12;30001;982;1884;-66
2021/09/13 00:06:37;;;;;;;;;;;;;;;15.47;77.29;97081.59;30001;982;1880;-67
2021/09/13 00:07:08;;;;;;;;;;;;;;;15.48;77.49;97075.00;30001;982;1884;-67
2021/09/13 00:07:39;;;;;;;;;;;;;;;15.48;77.60;97088.66;30001;982;1880;-67
2021/09/13 00:08:10;;;;;;;;;;;;;;;15.49;77.53;97084.00;30001;983;1866;-67
2021/09/13 00:08:41;;;;;;;;;;;;;;;15.48;77.62;97085.12;30001;983;1875;-62
2021/09/13 00:09:12;;;;;;;;;;;;;;;15.47;77.34;97086.25;30001;983;1884;-68
2021/09/13 00:09:43;;;;;;;;;;;;;;;15.47;77.74;97087.06;30001;983;1862;-67
2021/09/13 00:10:13;;;;;;;;;;;;;;;15.45;78.10;97080.28;30001;986;1871;-67
2021/09/13 00:10:46;;;;;;;;;;;;;;;15.42;79.20;97087.19;30001;983;1884;-66
2021/09/13 00:11:17;;;;;;;;;;;;;;;15.37;79.15;97082.69;30001;983;1880;-68
2021/09/13 00:11:48;;;;;;;;;;;;;;;15.33;79.64;97084.44;30001;983;1884;-61
2021/09/13 00:12:18;;;;;;;;;;;;;;;15.33;79.53;97087.16;30001;983;1880;-61
2021/09/13 00:12:49;;;;;;;;;;;;;;;15.30;79.71;97082.34;30001;982;1884;-66
2021/09/13 00:13:20;;;;;;;;;;;;;;;15.29;79.43;97079.94;30001;982;1880;-67
2021/09/13 00:13:51;;;;;;;;;;;;;;;15.27;79.26;97085.72;30001;982;1884;-67
2021/09/13 00:14:22;;;;;;;;;;;;;;;15.29;78.89;97078.00;30001;982;1880;-67
2021/09/13 00:14:53;;;;;;;;;;;;;;;15.30;78.96;97079.59;30001;969;1891;-62
2021/09/13 00:15:24;;;;;;;;;;;;;;;15.28;78.94;97079.13;30001;983;1875;-67
2021/09/13 00:15:54;;;;;;;;;;;;;;;15.28;78.86;97079.13;30001;983;1883;-68
2021/09/13 00:16:25;;;;;;;;;;;;;;;15.28;78.65;97079.13;30001;983;1879;-61
2021/09/13 00:16:56;;;;;;;;;;;;;;;15.27;79.42;97080.25;30001;983;1883;-66
2021/09/13 00:17:27;;;;;;;;;;;;;;;15.26;79.64;97075.09;30001;983;1879;-67
2021/09/13 00:17:58;;;;;;;;;;;;;;;15.26;79.31;97078.62;30001;983;1884;-66
2021/09/13 00:18:29;;;;;;;;;;;;;;;15.25;79.27;97074.28;30001;983;1862;-62
2021/09/13 00:19:00;;;;;;;;;;;;;;;15.26;79.30;97075.91;30001;983;1880;-68
2021/09/13 00:19:31;;;;;;;;;;;;;;;15.26;79.08;97075.91;30001;983;1879;-67
2021/09/13 00:20:03;;;;;;;;;;;;;;;15.26;79.15;97078.62;30001;983;1866;-61
2021/09/13 00:20:34;;;;;;;;;;;;;;;15.26;79.20;97077.81;30001;982;1875;-61
2021/09/13 00:21:05;;;;;;;;;;;;;;;15.26;79.11;97081.37;30001;982;1884;-67
2021/09/13 00:21:37;;;;;;;;;;;;;;;15.26;79.01;97086.84;30001;982;1880;-67
2021/09/13 00:22:08;;;;;;;;;;;;;;;15.26;79.24;97075.91;30001;982;1884;-68
2021/09/13 00:22:39;;;;;;;;;;;;;;;15.25;78.91;97074.28;30001;982;1880;-62
2021/09/13 00:23:10;;;;;;;;;;;;;;;15.26;78.79;97072.34;30001;983;1883;-67
2021/09/13 00:23:40;;;;;;;;;;;;;;;15.26;78.79;97080.56;30001;983;1879;-66
2021/09/13 00:24:11;;;;;;;;;;;;;;;15.25;78.60;97082.47;30001;983;1866;-63
2021/09/13 00:24:42;;;;;;;;;;;;;;;15.25;78.63;97074.28;30001;983;1821;-61
2021/09/13 00:25:13;;;;;;;;;;;;;;;15.25;78.54;97073.47;30001;983;1884;-66
2021/09/13 00:25:44;;;;;;;;;;;;;;;15.25;78.53;97077.03;30001;983;1879;-67
2021/09/13 00:26:15;;;;;;;;;;;;;;;15.26;78.54;97081.37;30001;983;1866;-66
2021/09/13 00:26:46;;;;;;;;;;;;;;;15.26;78.53;97075.09;30001;983;1875;-67
2021/09/13 00:27:17;;;;;;;;;;;;;;;15.25;78.85;97079.75;30001;983;1884;-67
2021/09/13 00:27:48;;;;;;;;;;;;;;;15.25;78.44;97074.28;30001;983;1880;-66
2021/09/13 00:28:19;;;;;;;;;;;;;;;15.24;78.80;97082.84;30001;982;1884;-67
2021/09/13 00:28:50;;;;;;;;;;;;;;;15.23;78.62;97071.09;30001;962;1900;-67
2021/09/13 00:29:21;;;;;;;;;;;;;;;15.22;78.88;97074.94;30001;982;1884;-61
2021/09/13 00:29:52;;;;;;;;;;;;;;;15.21;78.59;97073.34;30001;982;1880;-67
2021/09/13 00:30:23;;;;;;;;;;;;;;;15.21;78.59;97067.88;30001;983;1883;-66
2021/09/13 00:30:54;;;;;;;;;;;;;;;15.20;78.78;97076.38;30001;983;1879;-63
2021/09/13 00:31:28;;;;;;;;;;;;;;;15.20;78.74;97079.94;30001;983;1866;-62
2021/09/13 00:31:59;;;;;;;;;;;;;;;15.19;78.72;97074.78;30001;983;1875;-68
2021/09/13 00:32:30;;;;;;;;;;;;;;;15.19;78.92;97072.03;30001;983;1884;-68
2021/09/13 00:33:01;;;;;;;;;;;;;;;15.20;78.57;97071.72;30001;983;1808;-62
2021/09/13 00:33:32;;;;;;;;;;;;;;;15.18;78.61;97068.50;30001;983;1884;-62
2021/09/13 00:34:03;;;;;;;;;;;;;;;15.18;78.61;97073.16;30001;987;1880;-62
2021/09/13 00:34:35;;;;;;;;;;;;;;;15.17;78.49;97066.91;30001;983;1884;-60
2021/09/13 00:35:07;;;;;;;;;;;;;;;15.17;78.70;97071.56;30001;983;1880;-68
2021/09/13 00:35:37;;;;;;;;;;;;;;;15.16;78.84;97069.94;30001;982;1884;-68
2021/09/13 00:36:08;;;;;;;;;;;;;;;15.16;79.15;97069.94;30001;982;1880;-61
2021/09/13 00:36:41;;;;;;;;;;;;;;;15.13;79.27;97068.66;30001;982;1867;-61
2021/09/13 00:37:12;;;;;;;;;;;;;;;15.13;79.46;97071.38;30001;963;1895;-67
2021/09/13 00:37:43;;;;;;;;;;;;;;;15.12;79.70;97069.78;30001;982;1884;-68
2021/09/13 00:38:14;;;;;;;;;;;;;;;15.12;79.61;97075.22;30001;983;1862;-67
2021/09/13 00:38:45;;;;;;;;;;;;;;;15.11;79.58;97072.81;30001;983;1879;-67
2021/09/13 00:39:15;;;;;;;;;;;;;;;15.09;79.63;97073.13;30001;983;1879;-67
2021/09/13 00:39:46;;;;;;;;;;;;;;;15.08;79.87;97069.59;30001;983;1884;-68
2021/09/13 00:40:17;;;;;;;;;;;;;;;15.08;79.63;97071.53;30001;983;1879;-67
2021/09/13 00:40:49;;;;;;;;;;;;;;;15.07;79.89;97070.72;30001;983;1884;-68
2021/09/13 00:41:21;;;;;;;;;;;;;;;15.08;79.76;97068.78;30001;983;1880;-68
2021/09/13 00:41:52;;;;;;;;;;;;;;;15.08;79.76;97068.78;30001;975;1904;-68
2021/09/13 00:42:23;;;;;;;;;;;;;;;15.08;79.62;97068.78;30001;982;1880;-62
2021/09/13 00:42:54;;;;;;;;;;;;;;;15.07;79.86;97067.97;30001;962;1904;-67
2021/09/13 00:43:25;;;;;;;;;;;;;;;15.07;79.63;97067.97;30001;982;1862;-66
2021/09/13 00:43:57;;;;;;;;;;;;;;;15.07;79.16;97069.91;30001;982;1862;-62
2021/09/13 00:44:28;;;;;;;;;;;;;;;15.05;79.45;97070.22;30001;982;1880;-62
2021/09/13 00:45:00;;;;;;;;;;;;;;;15.06;78.96;97062.84;30001;982;1884;-67
2021/09/13 00:45:31;;;;;;;;;;;;;;;15.05;79.11;97069.41;30001;983;1879;-66
2021/09/13 00:46:05;;;;;;;;;;;;;;;15.04;78.98;97068.63;30001;983;1884;-68
2021/09/13 00:46:36;;;;;;;;;;;;;;;15.05;78.84;97069.41;30001;983;1879;-62
2021/09/13 00:47:07;;;;;;;;;;;;;;;15.02;79.18;97070.06;30001;983;1884;-69
2021/09/13 00:47:38;;;;;;;;;;;;;;;15.00;79.28;97067.63;30001;983;1879;-68
2021/09/13 00:48:09;;;;;;;;;;;;;;;14.98;79.83;97064.41;30001;983;1884;-61
2021/09/13 00:48:41;;;;;;;;;;;;;;;14.97;79.55;97070.19;30001;983;1880;-61
2021/09/13 00:49:12;;;;;;;;;;;;;;;14.96;79.49;97071.31;30001;983;1866;-67
2021/09/13 00:49:43;;;;;;;;;;;;;;;14.96;79.45;97069.38;30001;982;1875;-68
2021/09/13 00:50:13;;;;;;;;;;;;;;;14.96;79.55;97071.31;30001;982;1884;-68
2021/09/13 00:50:44;;;;;;;;;;;;;;;14.96;79.40;97063.91;30001;982;1880;-61
2021/09/13 00:51:15;;;;;;;;;;;;;;;14.97;79.51;97067.47;30001;982;1884;-67
2021/09/13 00:51:46;;;;;;;;;;;;;;;14.96;79.35;97069.38;30001;982;1880;-68
2021/09/13 00:52:17;;;;;;;;;;;;;;;14.99;79.48;97078.88;30001;982;1884;-61
2021/09/13 00:52:52;;;;;;;;;;;;;;;14.98;79.29;97075.34;30001;982;1880;-61
2021/09/13 00:53:23;;;;;;;;;;;;;;;15.00;79.32;97072.28;30001;983;1884;-69
2021/09/13 00:53:54;;;;;;;;;;;;;;;14.99;79.23;97071.50;30001;983;1862;-66
2021/09/13 00:54:26;;;;;;;;;;;;;;;15.00;79.17;97073.09;30001;983;1879;-67
2021/09/13 00:54:59;;;;;;;;;;;;;;;15.01;79.27;97074.72;30001;983;1862;-61
2021/09/13 00:55:29;;;;;;;;;;;;;;;15.02;78.89;97070.84;30001;983;1879;-66
2021/09/13 00:56:01;;;;;;;;;;;;;;;15.01;79.02;97074.72;30001;983;1880;-67
2021/09/13 00:56:32;;;;;;;;;;;;;;;15.03;79.00;97074.41;30001;983;1884;-61
2021/09/13 00:57:04;;;;;;;;;;;;;;;15.03;79.06;97074.41;30001;983;1880;-61
2021/09/13 00:57:35;;;;;;;;;;;;;;;15.03;79.27;97064.28;30001;982;1884;-67
2021/09/13 00:58:07;;;;;;;;;;;;;;;15.03;79.38;97071.66;30001;982;1880;-67
2021/09/13 00:58:40;;;;;;;;;;;;;;;15.01;79.79;97074.72;30001;982;1867;-68
2021/09/13 00:59:11;;;;;;;;;;;;;;;15.00;79.25;97072.28;30001;982;1876;-60
2021/09/13 00:59:42;;;;;;;;;;;;;;;15.00;79.33;97069.56;30001;982;1884;-60
2021/09/13 01:00:14;;;;;;;;;;;;;;;15.00;79.42;97072.28;30001;982;1880;-68
2021/09/13 01:00:47;;;;;;;;;;;;;;;15.00;79.69;97073.09;30001;983;1884;-68
2021/09/13 01:01:17;;;;;;;;;;;;;;;15.00;79.27;97073.09;30001;983;1879;-68
2021/09/13 01:01:48;;;;;;;;;;;;;;;15.01;79.56;97068.44;30001;983;1884;-61
2021/09/13 01:02:20;;;;;;;;;;;;;;;15.02;79.46;97070.06;30001;983;1879;-67
2021/09/13 01:02:50;;;;;;;;;;;;;;;15.01;79.59;97074.72;30001;983;1884;-67
2021/09/13 01:03:21;;;;;;;;;;;;;;;15.00;79.65;97073.09;30001;983;1880;-63
2021/09/13 01:03:53;;;;;;;;;;;;;;;15.01;79.34;97077.44;30001;983;1866;-68
2021/09/13 01:04:24;;;;;;;;;;;;;;;15.01;79.54;97068.44;30001;983;1875;-66
2021/09/13 01:04:55;;;;;;;;;;;;;;;15.01;79.71;97071.97;30001;982;1884;-67
2021/09/13 01:05:26;;;;;;;;;;;;;;;15.02;79.63;97070.06;30001;982;1880;-67
2021/09/13 01:05:57;;;;;;;;;;;;;;;15.03;79.55;97069.75;30001;982;1813;-67
2021/09/13 01:06:31;;;;;;;;;;;;;;;15.03;79.56;97066.19;30001;982;1880;-63
2021/09/13 01:07:02;;;;;;;;;;;;;;;15.04;79.52;97062.34;30001;982;1884;-64
2021/09/13 01:07:33;;;;;;;;;;;;;;;15.04;79.46;97062.34;30001;983;1862;-68
2021/09/13 01:08:05;;;;;;;;;;;;;;;15.04;79.28;97067.81;30001;983;1879;-62
2021/09/13 01:08:36;;;;;;;;;;;;;;;15.04;79.36;97062.34;30001;983;1879;-69
2021/09/13 01:09:07;;;;;;;;;;;;;;;15.03;79.25;97067.00;30001;983;1884;-67
2021/09/13 01:09:38;;;;;;;;;;;;;;;15.04;78.96;97062.34;30001;983;1879;-69
2021/09/13 01:10:09;;;;;;;;;;;;;;;15.03;79.11;97060.72;30001;983;1884;-61
2021/09/13 01:10:43;;;;;;;;;;;;;;;15.04;79.04;97065.87;30001;983;1862;-62
2021/09/13 01:11:14;;;;;;;;;;;;;;;15.04;79.11;97062.34;30001;983;1880;-67
2021/09/13 01:11:45;;;;;;;;;;;;;;;15.04;78.78;97062.34;30001;983;1880;-67
2021/09/13 01:12:17;;;;;;;;;;;;;;;15.04;78.87;97056.88;30001;982;1884;-67
2021/09/13 01:12:48;;;;;;;;;;;;;;;15.04;78.68;97057.69;30001;982;1880;-63
2021/09/13 01:13:19;;;;;;;;;;;;;;;15.04;78.85;97065.06;30001;982;1884;-62
2021/09/13 01:13:50;;;;;;;;;;;;;;;15.04;78.82;97062.34;30001;982;1880;-68
2021/09/13 01:14:21;;;;;;;;;;;;;;;15.04;78.47;97059.63;30001;982;1884;-67
2021/09/13 01:14:51;;;;;;;;;;;;;;;15.04;78.79;97059.63;30001;983;1862;-67
2021/09/13 01:15:22;;;;;;;;;;;;;;;15.04;78.31;97063.16;30001;983;1862;-68
2021/09/13 01:15:53;;;;;;;;;;;;;;;15.04;78.54;97054.97;30001;983;1879;-62
2021/09/13 01:16:24;;;;;;;;;;;;;;;15.04;78.27;97056.88;30001;983;1884;-62
2021/09/13 01:16:55;;;;;;;;;;;;;;;15.06;78.27;97060.09;30001;983;1862;-68
2021/09/13 01:17:26;;;;;;;;;;;;;;;15.05;78.55;97058.50;30001;983;1880;-68
2021/09/13 01:17:57;;;;;;;;;;;;;;;15.04;78.38;97059.63;30001;983;1879;-64
2021/09/13 01:18:28;;;;;;;;;;;;;;;15.04;78.44;97052.22;30001;983;1884;-69
2021/09/13 01:18:59;;;;;;;;;;;;;;;15.04;78.17;97063.16;30001;983;1880;-63
2021/09/13 01:19:29;;;;;;;;;;;;;;;15.04;78.28;97062.34;30001;983;1884;-63
2021/09/13 01:20:00;;;;;;;;;;;;;;;15.04;78.52;97057.69;30001;982;1880;-62
2021/09/13 01:20:31;;;;;;;;;;;;;;;15.03;78.34;97058.00;30001;982;1884;-68
2021/09/13 01:21:04;;;;;;;;;;;;;;;15.04;78.50;97062.34;30001;982;1880;-67
2021/09/13 01:21:36;;;;;;;;;;;;;;;15.04;78.56;97051.41;30001;982;1867;-63
2021/09/13 01:22:09;;;;;;;;;;;;;;;15.04;78.57;97062.34;30001;982;1876;-67
2021/09/13 01:22:42;;;;;;;;;;;;;;;15.04;78.61;97056.88;30001;983;1883;-62
2021/09/13 01:23:42;;;;;;;;;;;;;;;15.03;78.57;97061.53;30001;983;1879;-63
2021/09/13 01:24:13;;;;;;;;;;;;;;;15.03;78.62;97056.06;30001;983;1862;-67
2021/09/13 01:24:44;;;;;;;;;;;;;;;15.03;78.64;97067.00;30001;983;1875;-69
2021/09/13 01:25:14;;;;;;;;;;;;;;;15.03;78.99;97052.53;30001;983;1884;-67
2021/09/13 01:25:46;;;;;;;;;;;;;;;15.03;78.73;97060.72;30001;983;1879;-68
2021/09/13 01:26:17;;;;;;;;;;;;;;;15.02;78.60;97059.13;30001;983;1884;-67
2021/09/13 01:26:48;;;;;;;;;;;;;;;15.03;78.75;97060.72;30001;983;1880;-66
2021/09/13 01:27:22;;;;;;;;;;;;;;;15.04;78.71;97062.34;30001;983;1867;-67
2021/09/13 01:27:53;;;;;;;;;;;;;;;15.02;78.80;97062.66;30001;982;1875;-67
2021/09/13 01:28:24;;;;;;;;;;;;;;;15.02;78.90;97061.84;30001;982;1867;-67
2021/09/13 01:28:55;;;;;;;;;;;;;;;15.02;78.91;97059.13;30001;982;1876;-62
2021/09/13 01:29:27;;;;;;;;;;;;;;;15.00;79.02;97056.72;30001;982;1884;-65
2021/09/13 01:29:58;;;;;;;;;;;;;;;15.01;78.86;97061.06;30001;983;1879;-64
2021/09/13 01:30:30;;;;;;;;;;;;;;;15.00;78.92;97051.25;30001;983;1883;-67
2021/09/13 01:31:01;;;;;;;;;;;;;;;15.01;78.79;97052.06;30001;983;1879;-67
2021/09/13 01:31:32;;;;;;;;;;;;;;;15.00;79.01;97056.72;30001;983;1884;-65
2021/09/13 01:32:04;;;;;;;;;;;;;;;15.00;78.75;97056.72;30001;983;1879;-67
2021/09/13 01:32:35;;;;;;;;;;;;;;;15.02;79.08;97054.47;30001;983;1884;-66
2021/09/13 01:33:06;;;;;;;;;;;;;;;15.03;78.84;97049.81;30001;983;1879;-67
2021/09/13 01:33:37;;;;;;;;;;;;;;;15.03;78.96;97055.28;30001;983;1866;-66
2021/09/13 01:34:07;;;;;;;;;;;;;;;15.01;78.97;97049.31;30001;983;1875;-65
2021/09/13 01:34:38;;;;;;;;;;;;;;;15.01;78.72;97047.38;30001;983;1867;-69
2021/09/13 01:35:09;;;;;;;;;;;;;;;15.00;78.87;97053.16;30001;982;1780;-66
2021/09/13 01:35:42;;;;;;;;;;;;;;;15.00;79.07;97044.97;30001;982;1884;-63
2021/09/13 01:36:13;;;;;;;;;;;;;;;15.00;79.15;97044.97;30001;982;1880;-67
2021/09/13 01:36:44;;;;;;;;;;;;;;;15.00;79.12;97050.44;30001;982;1867;-66
2021/09/13 01:37:15;;;;;;;;;;;;;;;14.98;79.17;97056.22;30001;964;1894;-68
2021/09/13 01:37:45;;;;;;;;;;;;;;;14.96;79.27;97050.25;30001;983;1883;-65
2021/09/13 01:38:17;;;;;;;;;;;;;;;14.96;79.19;97049.47;30001;983;1879;-68
2021/09/13 01:38:48;;;;;;;;;;;;;;;14.95;79.40;97047.84;30001;983;1884;-63
2021/09/13 01:39:19;;;;;;;;;;;;;;;14.95;79.24;97045.13;30001;983;1879;-63
2021/09/13 01:39:51;;;;;;;;;;;;;;;14.93;79.26;97045.44;30001;983;1866;-64
2021/09/13 01:40:22;;;;;;;;;;;;;;;14.92;79.30;97045.75;30001;983;1875;-63
2021/09/13 01:40:53;;;;;;;;;;;;;;;14.92;79.45;97048.47;30001;983;1884;-67
2021/09/13 01:41:24;;;;;;;;;;;;;;;14.91;79.55;97052.34;30001;983;1880;-63
2021/09/13 01:41:54;;;;;;;;;;;;;;;14.89;79.64;97049.13;30001;982;1884;-68
2021/09/13 01:42:25;;;;;;;;;;;;;;;14.89;79.41;97055.41;30001;982;1880;-63
2021/09/13 01:42:57;;;;;;;;;;;;;;;14.87;79.83;97046.72;30001;982;1884;-68
2021/09/13 01:43:28;;;;;;;;;;;;;;;14.85;79.66;97048.97;30001;982;1880;-67
2021/09/13 01:43:59;;;;;;;;;;;;;;;14.85;79.99;97054.44;30001;982;1884;-68
2021/09/13 01:44:30;;;;;;;;;;;;;;;14.82;80.32;97059.72;30001;982;1862;-62
2021/09/13 01:45:03;;;;;;;;;;;;;;;14.78;80.28;97048.59;30001;983;1879;-68
2021/09/13 01:45:34;;;;;;;;;;;;;;;14.75;80.80;97055.50;30001;983;1879;-68
2021/09/13 01:46:05;;;;;;;;;;;;;;;14.71;81.47;97049.06;30001;983;1884;-62
2021/09/13 01:46:37;;;;;;;;;;;;;;;14.68;81.41;97049.69;30001;983;1879;-68
2021/09/13 01:47:09;;;;;;;;;;;;;;;14.66;81.24;97051.94;30001;982;1884;-68
2021/09/13 01:47:40;;;;;;;;;;;;;;;14.64;81.17;97059.63;30001;983;1880;-68
2021/09/13 01:48:12;;;;;;;;;;;;;;;14.64;80.98;97054.16;30001;983;1884;-63
2021/09/13 01:48:44;;;;;;;;;;;;;;;14.62;81.71;97056.41;30001;983;1880;-63
2021/09/13 01:49:15;;;;;;;;;;;;;;;14.61;81.68;97054.78;30001;982;1867;-63
2021/09/13 01:49:46;;;;;;;;;;;;;;;14.60;81.41;97052.37;30001;982;1875;-67
2021/09/13 01:50:18;;;;;;;;;;;;;;;14.60;81.52;97055.91;30001;982;1884;-63
2021/09/13 01:50:49;;;;;;;;;;;;;;;14.60;81.28;97050.44;30001;982;1880;-68
2021/09/13 01:51:20;;;;;;;;;;;;;;;14.60;81.19;97053.19;30001;982;1884;-67
2021/09/13 01:51:53;;;;;;;;;;;;;;;14.57;80.98;97048.34;30001;982;1880;-68
2021/09/13 01:52:24;;;;;;;;;;;;;;;14.59;81.11;97051.56;30001;982;1867;-68
2021/09/13 01:52:55;;;;;;;;;;;;;;;14.57;81.12;97048.34;30001;983;1875;-62
2021/09/13 01:53:26;;;;;;;;;;;;;;;14.57;81.13;97042.88;30001;983;1884;-67
2021/09/13 01:53:57;;;;;;;;;;;;;;;14.57;80.96;97053.00;30001;983;1862;-63
2021/09/13 01:54:28;;;;;;;;;;;;;;;14.57;80.94;97042.88;30001;983;1879;-63
2021/09/13 01:54:59;;;;;;;;;;;;;;;14.57;80.98;97048.34;30001;983;1879;-68
2021/09/13 01:55:30;;;;;;;;;;;;;;;14.56;81.04;97041.28;30001;983;1884;-63
2021/09/13 01:56:00;;;;;;;;;;;;;;;14.58;80.79;97044.50;30001;983;1880;-64
2021/09/13 01:56:33;;;;;;;;;;;;;;;14.57;81.15;97042.88;30001;983;1884;-66
2021/09/13 01:57:04;;;;;;;;;;;;;;;14.57;80.79;97040.16;30001;982;1880;-64
2021/09/13 01:57:35;;;;;;;;;;;;;;;14.57;80.78;97042.88;30001;982;1867;-62
2021/09/13 01:58:06;;;;;;;;;;;;;;;14.57;80.67;97042.06;30001;982;1876;-67
2021/09/13 01:58:37;;;;;;;;;;;;;;;14.56;80.88;97040.47;30001;982;1884;-63
2021/09/13 01:59:08;;;;;;;;;;;;;;;14.55;80.73;97034.22;30001;982;1880;-69
2021/09/13 01:59:39;;;;;;;;;;;;;;;14.55;80.99;97034.22;30001;982;1884;-66
2021/09/13 02:00:10;;;;;;;;;;;;;;;14.56;80.74;97045.94;30001;983;1879;-64
2021/09/13 02:00:41;;;;;;;;;;;;;;;14.56;80.91;97041.28;30001;983;1884;-65
2021/09/13 02:01:13;;;;;;;;;;;;;;;14.57;80.73;97036.63;30001;983;1879;-68
2021/09/13 02:01:47;;;;;;;;;;;;;;;14.57;80.93;97045.63;30001;986;1884;-68
2021/09/13 02:02:18;;;;;;;;;;;;;;;14.55;80.59;97038.88;30001;959;1814;-68
2021/09/13 02:02:52;;;;;;;;;;;;;;;14.54;80.86;97037.28;30001;983;1866;-62
2021/09/13 02:03:23;;;;;;;;;;;;;;;14.52;80.68;97040.31;30001;983;1875;-68
2021/09/13 02:03:53;;;;;;;;;;;;;;;14.52;81.08;97037.59;30001;983;1884;-67
2021/09/13 02:04:24;;;;;;;;;;;;;;;14.51;80.81;97035.97;30001;982;1880;-64
2021/09/13 02:04:55;;;;;;;;;;;;;;;14.49;81.02;97040.94;30001;982;1884;-68
2021/09/13 02:05:26;;;;;;;;;;;;;;;14.48;80.73;97033.88;30001;982;1880;-69
2021/09/13 02:05:57;;;;;;;;;;;;;;;14.47;81.25;97032.25;30001;982;1884;-67
2021/09/13 02:06:28;;;;;;;;;;;;;;;14.48;81.15;97038.53;30001;982;1880;-69
2021/09/13 02:06:58;;;;;;;;;;;;;;;14.48;81.13;97035.78;30001;982;1884;-65
2021/09/13 02:07:29;;;;;;;;;;;;;;;14.48;80.82;97038.53;30001;982;1880;-63
2021/09/13 02:08:00;;;;;;;;;;;;;;;14.46;80.78;97036.09;30001;983;1866;-64
2021/09/13 02:08:31;;;;;;;;;;;;;;;14.46;80.83;97036.09;30001;983;1875;-66
2021/09/13 02:09:02;;;;;;;;;;;;;;;14.44;81.11;97043.81;30001;983;1884;-69
2021/09/13 02:09:33;;;;;;;;;;;;;;;14.44;80.91;97034.81;30001;983;1879;-68
2021/09/13 02:10:05;;;;;;;;;;;;;;;14.43;81.23;97031.28;30001;983;1884;-62
2021/09/13 02:10:36;;;;;;;;;;;;;;;14.40;81.14;97031.88;30001;983;1880;-67
2021/09/13 02:11:07;;;;;;;;;;;;;;;14.38;81.17;97034.91;30001;983;1884;-67
2021/09/13 02:11:38;;;;;;;;;;;;;;;14.37;81.00;97038.75;30001;983;1880;-68
2021/09/13 02:12:09;;;;;;;;;;;;;;;14.37;81.84;97032.50;30001;982;1884;-67
2021/09/13 02:12:40;;;;;;;;;;;;;;;14.34;81.47;97035.84;30001;982;1880;-63
2021/09/13 02:13:12;;;;;;;;;;;;;;;14.33;81.28;97034.25;30001;982;1867;-67
2021/09/13 02:13:42;;;;;;;;;;;;;;;14.33;81.70;97028.78;30001;982;1876;-68
2021/09/13 02:14:13;;;;;;;;;;;;;;;14.31;81.94;97036.47;30001;982;1884;-69
2021/09/13 02:14:44;;;;;;;;;;;;;;;14.30;81.74;97034.84;30001;963;1895;-69
2021/09/13 02:15:15;;;;;;;;;;;;;;;14.29;82.15;97039.50;30001;983;1884;-69
2021/09/13 02:15:46;;;;;;;;;;;;;;;14.26;81.89;97034.69;30001;983;1879;-68
2021/09/13 02:16:17;;;;;;;;;;;;;;;14.26;81.91;97033.88;30001;983;1884;-67
2021/09/13 02:16:48;;;;;;;;;;;;;;;14.25;82.05;97032.25;30001;983;1879;-67
2021/09/13 02:17:19;;;;;;;;;;;;;;;14.26;82.13;97036.59;30001;983;1884;-62
2021/09/13 02:17:50;;;;;;;;;;;;;;;14.26;82.12;97042.06;30001;983;1880;-63
2021/09/13 02:18:21;;;;;;;;;;;;;;;14.26;82.03;97037.41;30001;983;1866;-64
2021/09/13 02:18:52;;;;;;;;;;;;;;;14.26;81.95;97039.31;30001;983;1875;-67
2021/09/13 02:19:23;;;;;;;;;;;;;;;14.26;82.26;97036.59;30001;982;1884;-62
2021/09/13 02:19:54;;;;;;;;;;;;;;;14.26;82.01;97031.13;30001;982;1880;-64
2021/09/13 02:20:25;;;;;;;;;;;;;;;14.26;82.20;97036.59;30001;982;1884;-67
2021/09/13 02:20:56;;;;;;;;;;;;;;;14.26;82.08;97039.31;30001;982;1880;-69
2021/09/13 02:21:27;;;;;;;;;;;;;;;14.26;82.32;97034.69;30001;982;1884;-65
2021/09/13 02:21:58;;;;;;;;;;;;;;;14.28;82.01;97034.38;30001;983;1787;-63
2021/09/13 02:22:29;;;;;;;;;;;;;;;14.26;82.13;97026.50;30001;983;1883;-67
2021/09/13 02:22:59;;;;;;;;;;;;;;;14.27;81.93;97027.28;30001;983;1879;-67
2021/09/13 02:23:31;;;;;;;;;;;;;;;14.28;81.78;97034.38;30001;983;1866;-67
2021/09/13 02:24:02;;;;;;;;;;;;;;;14.27;81.69;97032.75;30001;983;1875;-66
2021/09/13 02:24:33;;;;;;;;;;;;;;;14.28;81.99;97028.91;30001;983;1884;-66
2021/09/13 02:25:04;;;;;;;;;;;;;;;14.27;81.56;97027.28;30001;983;1879;-64
2021/09/13 02:25:35;;;;;;;;;;;;;;;14.28;81.92;97034.38;30001;983;1884;-67
2021/09/13 02:26:06;;;;;;;;;;;;;;;14.27;81.52;97025.38;30001;983;1880;-63
2021/09/13 02:26:37;;;;;;;;;;;;;;;14.26;81.87;97029.22;30001;983;1884;-68
2021/09/13 02:27:09;;;;;;;;;;;;;;;14.27;81.53;97032.75;30001;982;1880;-68
2021/09/13 02:27:39;;;;;;;;;;;;;;;14.26;81.60;97031.94;30001;982;1884;-68
2021/09/13 02:28:10;;;;;;;;;;;;;;;14.27;81.85;97027.28;30001;960;1902;-67
2021/09/13 02:28:41;;;;;;;;;;;;;;;14.27;81.89;97030.03;30001;982;1867;-67
2021/09/13 02:29:12;;;;;;;;;;;;;;;14.27;81.64;97027.28;30001;982;1876;-67
2021/09/13 02:29:43;;;;;;;;;;;;;;;14.28;81.72;97023.44;30001;983;1883;-63
2021/09/13 02:30:14;;;;;;;;;;;;;;;14.27;81.64;97032.75;30001;983;1879;-67
2021/09/13 02:30:45;;;;;;;;;;;;;;;14.28;81.79;97028.91;30001;983;1884;-69
2021/09/13 02:31:16;;;;;;;;;;;;;;;14.27;81.54;97030.84;30001;983;1879;-67
2021/09/13 02:31:47;;;;;;;;;;;;;;;14.27;81.98;97030.03;30001;983;1884;-61
2021/09/13 02:32:18;;;;;;;;;;;;;;;14.23;81.79;97032.56;30001;983;1879;-68
2021/09/13 02:32:49;;;;;;;;;;;;;;;14.23;82.08;97031.75;30001;983;1884;-68
2021/09/13 02:33:20;;;;;;;;;;;;;;;14.22;82.42;97032.88;30001;983;1880;-68
2021/09/13 02:33:51;;;;;;;;;;;;;;;14.21;82.25;97036.72;30001;983;1867;-67
2021/09/13 02:34:21;;;;;;;;;;;;;;;14.21;82.25;97039.47;30001;983;1875;-62
2021/09/13 02:34:52;;;;;;;;;;;;;;;14.20;82.69;97032.41;30001;982;1884;-61
2021/09/13 02:35:23;;;;;;;;;;;;;;;14.17;82.30;97038.50;30001;982;1880;-67
2021/09/13 02:35:54;;;;;;;;;;;;;;;14.18;82.90;97031.91;30001;982;1884;-68
2021/09/13 02:36:25;;;;;;;;;;;;;;;14.17;82.73;97036.56;30001;982;1880;-67
2021/09/13 02:36:55;;;;;;;;;;;;;;;14.16;82.96;97034.16;30001;982;1884;-62
2021/09/13 02:37:26;;;;;;;;;;;;;;;14.15;82.71;97029.81;30001;983;1879;-60
2021/09/13 02:37:57;;;;;;;;;;;;;;;14.14;83.15;97033.66;30001;983;1884;-62
2021/09/13 02:38:28;;;;;;;;;;;;;;;14.13;83.08;97032.03;30001;983;1879;-61
2021/09/13 02:38:59;;;;;;;;;;;;;;;14.12;83.26;97033.16;30001;983;1866;-61
2021/09/13 02:39:30;;;;;;;;;;;;;;;14.12;83.07;97036.69;30001;983;1875;-68
2021/09/13 02:40:02;;;;;;;;;;;;;;;14.11;83.13;97040.53;30001;983;1884;-69
2021/09/13 02:40:32;;;;;;;;;;;;;;;14.11;83.60;97034.28;30001;983;1880;-61
2021/09/13 02:41:06;;;;;;;;;;;;;;;14.09;83.78;97038.13;30001;983;1884;-68
2021/09/13 02:41:38;;;;;;;;;;;;;;;14.08;83.40;97047.44;30001;983;1880;-69
2021/09/13 02:42:09;;;;;;;;;;;;;;;14.08;83.53;97044.69;30001;982;1884;-68
2021/09/13 02:42:40;;;;;;;;;;;;;;;14.08;83.33;97047.44;30001;982;1880;-68
2021/09/13 02:43:11;;;;;;;;;;;;;;;14.08;83.87;97039.25;30001;982;1884;-69
2021/09/13 02:43:41;;;;;;;;;;;;;;;14.07;83.74;97037.63;30001;982;1880;-67
2021/09/13 02:44:13;;;;;;;;;;;;;;;14.06;84.07;97036.03;30001;982;1867;-67
2021/09/13 02:44:43;;;;;;;;;;;;;;;14.04;83.72;97037.44;30001;983;1875;-67
2021/09/13 02:45:15;;;;;;;;;;;;;;;14.03;83.83;97038.56;30001;983;1866;-67
2021/09/13 02:45:46;;;;;;;;;;;;;;;14.00;84.01;97034.53;30001;983;1875;-68
2021/09/13 02:46:18;;;;;;;;;;;;;;;13.98;84.32;97033.22;30001;983;1884;-62
2021/09/13 02:46:50;;;;;;;;;;;;;;;13.97;84.00;97034.34;30001;983;1879;-62
2021/09/13 02:47:22;;;;;;;;;;;;;;;13.94;84.17;97041.22;30001;983;1884;-63